Time,TemperatureF,DewpointF,PressureIn,WindDirection,WindDirectionDegrees,WindSpeedMPH,WindSpeedGustMPH,Humidity,HourlyPrecipIn,Conditions,Clouds,dailyrainin,SoftwareType,DateUTC
2013-02-09 00:02:00,47.0,32.1,30.01,NW,310,5.0,5.0,56,0.00,,,0.00,Wunderground v.1.15,2013-02-09 08:02:00,
2013-02-09 00:07:00,46.9,32.4,30.01,NNW,331,3.0,5.0,57,0.00,,,0.00,Wunderground v.1.15,2013-02-09 08:07:00,
2013-02-09 00:12:00,47.0,32.5,30.01,NW,324,4.0,4.0,57,0.00,,,0.00,Wunderground v.1.15,2013-02-09 08:12:00,
2013-02-09 00:18:00,47.2,32.3,30.01,NW,315,1.0,5.0,56,0.00,,,0.00,Wunderground v.1.15,2013-02-09 08:18:00,
2013-02-09 00:23:00,47.1,32.6,30.02,NW,321,4.0,4.0,57,0.00,,,0.00,Wunderground v.1.15,2013-02-09 08:23:00,
2013-02-09 00:28:00,46.8,32.8,30.02,NNW,327,0.0,4.0,58,0.00,,,0.00,Wunderground v.1.15,2013-02-09 08:28:00,
2013-02-09 00:33:00,45.9,32.4,30.02,NNW,336,3.0,4.0,59,0.00,,,0.00,Wunderground v.1.15,2013-02-09 08:33:00,
2013-02-09 00:38:00,46.4,32.4,30.02,NNW,336,4.0,5.0,58,0.00,,,0.00,Wunderground v.1.15,2013-02-09 08:38:00,
2013-02-09 00:45:00,46.8,31.9,30.02,NW,310,4.0,4.0,56,0.00,,,0.00,Wunderground v.1.15,2013-02-09 08:45:00,
2013-02-09 00:51:00,47.2,31.8,30.02,NNW,327,4.0,6.0,55,0.00,,,0.00,Wunderground v.1.15,2013-02-09 08:51:00,
2013-02-09 00:56:00,47.3,31.5,30.02,NW,313,3.0,4.0,54,0.00,,,0.00,Wunderground v.1.15,2013-02-09 08:56:00,
2013-02-09 01:02:00,47.3,31.5,30.02,NNW,333,4.0,5.0,54,0.00,,,0.00,Wunderground v.1.15,2013-02-09 09:02:00,
2013-02-09 01:08:00,47.0,31.2,30.02,NW,325,4.0,7.0,54,0.00,,,0.00,Wunderground v.1.15,2013-02-09 09:08:00,
2013-02-09 01:13:00,47.0,31.2,30.02,NW,323,4.0,4.0,54,0.00,,,0.00,Wunderground v.1.15,2013-02-09 09:13:00,
2013-02-09 01:19:00,46.5,31.2,30.02,NW,323,2.0,4.0,55,0.00,,,0.00,Wunderground v.1.15,2013-02-09 09:19:00,
2013-02-09 01:25:00,46.0,31.6,30.02,NNW,334,0.0,4.0,57,0.00,,,0.00,Wunderground v.1.15,2013-02-09 09:25:00,
2013-02-09 01:31:00,44.7,31.2,30.03,NNW,342,2.0,3.0,59,0.00,,,0.00,Wunderground v.1.15,2013-02-09 09:31:00,
2013-02-09 01:36:00,45.1,31.6,30.03,NNW,341,1.0,4.0,59,0.00,,,0.00,Wunderground v.1.15,2013-02-09 09:36:00,
2013-02-09 01:42:00,45.6,32.5,30.03,NNW,338,3.0,5.0,60,0.00,,,0.00,Wunderground v.1.15,2013-02-09 09:42:00,
2013-02-09 01:48:00,45.8,32.7,30.03,NNW,348,2.0,6.0,60,0.00,,,0.00,Wunderground v.1.15,2013-02-09 09:48:00,
2013-02-09 01:54:00,45.8,33.1,30.03,NNW,342,3.0,6.0,61,0.00,,,0.00,Wunderground v.1.15,2013-02-09 09:54:00,
2013-02-09 01:59:00,45.6,33.3,30.03,NNW,337,3.0,6.0,62,0.00,,,0.00,Wunderground v.1.15,2013-02-09 09:59:00,
2013-02-09 02:04:00,45.4,33.1,30.03,NNW,346,3.0,6.0,62,0.00,,,0.00,Wunderground v.1.15,2013-02-09 10:04:00,
2013-02-09 02:09:00,45.4,33.1,30.03,NNW,327,5.0,9.0,62,0.00,,,0.00,Wunderground v.1.15,2013-02-09 10:09:00,
2013-02-09 02:14:00,45.2,32.9,30.03,NW,321,1.0,5.0,62,0.00,,,0.00,Wunderground v.1.15,2013-02-09 10:14:00,
2013-02-09 02:19:00,44.9,32.7,30.03,NW,304,3.0,5.0,62,0.00,,,0.00,Wunderground v.1.15,2013-02-09 10:19:00,
2013-02-09 02:24:00,45.1,32.8,30.03,NNW,338,2.0,5.0,62,0.00,,,0.00,Wunderground v.1.15,2013-02-09 10:24:00,
2013-02-09 02:29:00,45.3,32.2,30.03,NW,321,3.0,5.0,60,0.00,,,0.00,Wunderground v.1.15,2013-02-09 10:29:00,
2013-02-09 02:34:00,45.3,32.2,30.03,NW,324,1.0,3.0,60,0.00,,,0.00,Wunderground v.1.15,2013-02-09 10:34:00,
2013-02-09 02:40:00,45.1,32.4,30.03,NNW,333,0.0,2.0,61,0.00,,,0.00,Wunderground v.1.15,2013-02-09 10:40:00,
2013-02-09 02:45:00,44.7,32.9,30.03,NNW,337,2.0,4.0,63,0.00,,,0.00,Wunderground v.1.15,2013-02-09 10:45:00,
2013-02-09 02:50:00,44.7,33.3,30.03,NNW,341,0.0,2.0,64,0.00,,,0.00,Wunderground v.1.15,2013-02-09 10:50:00,
2013-02-09 02:55:00,45.1,33.6,30.03,NW,325,2.0,4.0,64,0.00,,,0.00,Wunderground v.1.15,2013-02-09 10:55:00,
2013-02-09 03:00:00,45.0,33.5,30.03,NW,321,0.0,3.0,64,0.00,,,0.00,Wunderground v.1.15,2013-02-09 11:00:00,
2013-02-09 03:05:00,45.1,33.6,30.03,NNW,344,4.0,5.0,64,0.00,,,0.00,Wunderground v.1.15,2013-02-09 11:05:00,
2013-02-09 03:10:00,45.3,34.2,30.03,NW,315,3.0,3.0,65,0.00,,,0.00,Wunderground v.1.15,2013-02-09 11:10:00,
2013-02-09 03:15:00,45.4,33.9,30.03,NW,313,3.0,5.0,64,0.00,,,0.00,Wunderground v.1.15,2013-02-09 11:15:00,
2013-02-09 03:20:00,45.5,33.6,30.03,NW,321,3.0,4.0,63,0.00,,,0.00,Wunderground v.1.15,2013-02-09 11:20:00,
2013-02-09 03:25:00,45.5,33.6,30.03,NNW,346,1.0,6.0,63,0.00,,,0.00,Wunderground v.1.15,2013-02-09 11:25:00,
2013-02-09 03:30:00,45.6,33.3,30.03,NW,321,4.0,6.0,62,0.00,,,0.00,Wunderground v.1.15,2013-02-09 11:30:00,
2013-02-09 03:35:00,45.8,33.5,30.03,NNW,333,5.0,8.0,62,0.00,,,0.00,Wunderground v.1.15,2013-02-09 11:35:00,
2013-02-09 03:40:00,45.8,33.5,30.03,NW,324,4.0,4.0,62,0.00,,,0.00,Wunderground v.1.15,2013-02-09 11:40:00,
2013-02-09 03:45:00,45.6,33.7,30.03,NNW,329,2.0,10.0,63,0.00,,,0.00,Wunderground v.1.15,2013-02-09 11:45:00,
2013-02-09 03:50:00,45.5,33.6,30.03,NW,322,7.0,7.0,63,0.00,,,0.00,Wunderground v.1.15,2013-02-09 11:50:00,
2013-02-09 03:55:00,45.6,33.3,30.03,NW,319,4.0,9.0,62,0.00,,,0.00,Wunderground v.1.15,2013-02-09 11:55:00,
2013-02-09 04:00:00,45.6,33.7,30.03,NW,318,3.0,6.0,63,0.00,,,0.00,Wunderground v.1.15,2013-02-09 12:00:00,
2013-02-09 04:05:00,45.6,33.3,30.03,NNW,328,5.0,11.0,62,0.00,,,0.00,Wunderground v.1.15,2013-02-09 12:05:00,
2013-02-09 04:10:00,45.5,32.8,30.03,NW,319,4.0,5.0,61,0.00,,,0.00,Wunderground v.1.15,2013-02-09 12:10:00,
2013-02-09 04:15:00,45.5,32.8,30.04,NW,315,4.0,6.0,61,0.00,,,0.00,Wunderground v.1.15,2013-02-09 12:15:00,
2013-02-09 04:20:00,45.6,32.5,30.03,WNW,300,2.0,4.0,60,0.00,,,0.00,Wunderground v.1.15,2013-02-09 12:20:00,
2013-02-09 04:25:00,45.5,32.0,30.04,NW,309,6.0,6.0,59,0.00,,,0.00,Wunderground v.1.15,2013-02-09 12:25:00,
2013-02-09 04:30:00,45.4,31.5,30.04,NNW,339,5.0,5.0,58,0.00,,,0.00,Wunderground v.1.15,2013-02-09 12:30:00,
2013-02-09 04:35:00,45.1,31.2,30.04,NW,313,6.0,7.0,58,0.00,,,0.00,Wunderground v.1.15,2013-02-09 12:35:00,
2013-02-09 04:40:00,45.1,30.8,30.04,NW,319,4.0,6.0,57,0.00,,,0.00,Wunderground v.1.15,2013-02-09 12:40:00,
2013-02-09 04:45:00,45.3,31.0,30.04,NW,325,5.0,6.0,57,0.00,,,0.00,Wunderground v.1.15,2013-02-09 12:45:00,
2013-02-09 04:50:00,45.4,30.6,30.04,NW,325,3.0,3.0,56,0.00,,,0.00,Wunderground v.1.15,2013-02-09 12:50:00,
2013-02-09 04:55:00,45.7,30.0,30.04,NW,313,0.0,6.0,54,0.00,,,0.00,Wunderground v.1.15,2013-02-09 12:55:00,
2013-02-09 05:00:00,45.9,30.2,30.04,NNW,329,2.0,3.0,54,0.00,,,0.00,Wunderground v.1.15,2013-02-09 13:00:00,
2013-02-09 05:05:00,45.9,29.2,30.04,NW,326,1.0,4.0,52,0.00,,,0.00,Wunderground v.1.15,2013-02-09 13:05:00,
2013-02-09 05:10:00,45.8,29.2,30.04,NW,326,0.0,1.0,52,0.00,,,0.00,Wunderground v.1.15,2013-02-09 13:10:00,
2013-02-09 05:15:00,45.6,31.2,30.04,NW,318,0.0,2.0,57,0.00,,,0.00,Wunderground v.1.15,2013-02-09 13:15:00,
2013-02-09 05:20:00,44.2,30.3,30.04,NW,318,0.0,0.0,58,0.00,,,0.00,Wunderground v.1.15,2013-02-09 13:20:00,
2013-02-09 05:25:00,43.6,29.8,30.04,NW,318,0.0,2.0,58,0.00,,,0.00,Wunderground v.1.15,2013-02-09 13:25:00,
2013-02-09 05:30:00,43.1,30.6,30.04,NW,318,0.0,1.0,61,0.00,,,0.00,Wunderground v.1.15,2013-02-09 13:30:00,
2013-02-09 05:35:00,42.6,29.3,30.04,NW,318,0.0,1.0,59,0.00,,,0.00,Wunderground v.1.15,2013-02-09 13:35:00,
2013-02-09 05:40:00,42.3,29.8,30.04,NW,318,0.0,0.0,61,0.00,,,0.00,Wunderground v.1.15,2013-02-09 13:40:00,
2013-02-09 05:45:00,41.9,30.2,30.04,NW,318,0.0,0.0,63,0.00,,,0.00,Wunderground v.1.15,2013-02-09 13:45:00,
2013-02-09 05:50:00,41.3,30.4,30.04,NW,318,0.0,0.0,65,0.00,,,0.00,Wunderground v.1.15,2013-02-09 13:50:00,
2013-02-09 05:55:00,40.7,30.2,30.04,NW,318,0.0,0.0,66,0.00,,,0.00,Wunderground v.1.15,2013-02-09 13:55:00,
2013-02-09 06:00:00,40.3,29.5,30.04,NW,319,0.0,0.0,65,0.00,,,0.00,Wunderground v.1.15,2013-02-09 14:00:00,
2013-02-09 06:05:00,40.0,29.6,30.04,NW,318,0.0,0.0,66,0.00,,,0.00,Wunderground v.1.15,2013-02-09 14:05:00,
2013-02-09 06:10:00,40.0,29.6,30.05,NW,318,0.0,0.0,66,0.00,,,0.00,Wunderground v.1.15,2013-02-09 14:10:00,
2013-02-09 06:15:00,39.7,30.0,30.05,NW,318,0.0,0.0,68,0.00,,,0.00,Wunderground v.1.15,2013-02-09 14:15:00,
2013-02-09 06:20:00,39.1,30.1,30.05,NW,318,0.0,0.0,70,0.00,,,0.00,Wunderground v.1.15,2013-02-09 14:20:00,
2013-02-09 06:25:00,38.5,29.9,30.05,NW,318,0.0,0.0,71,0.00,,,0.00,Wunderground v.1.15,2013-02-09 14:25:00,
2013-02-09 06:30:00,38.1,29.5,30.05,NW,318,0.0,0.0,71,0.00,,,0.00,Wunderground v.1.15,2013-02-09 14:30:00,
2013-02-09 06:35:00,37.9,30.0,30.05,NW,318,0.0,1.0,73,0.00,,,0.00,Wunderground v.1.15,2013-02-09 14:35:00,
2013-02-09 06:40:00,37.7,29.8,30.05,NW,318,0.0,0.0,73,0.00,,,0.00,Wunderground v.1.15,2013-02-09 14:40:00,
2013-02-09 06:45:00,37.5,29.6,30.05,NW,318,0.0,0.0,73,0.00,,,0.00,Wunderground v.1.15,2013-02-09 14:45:00,
2013-02-09 06:50:00,37.3,30.1,30.05,NW,318,0.0,0.0,75,0.00,,,0.00,Wunderground v.1.15,2013-02-09 14:50:00,
2013-02-09 06:55:00,37.1,29.2,30.06,NW,318,0.0,0.0,73,0.00,,,0.00,Wunderground v.1.15,2013-02-09 14:55:00,
2013-02-09 07:01:00,37.4,29.9,30.06,NW,318,0.0,0.0,74,0.00,,,0.00,Wunderground v.1.15,2013-02-09 15:01:00,
2013-02-09 07:06:00,37.6,29.7,30.06,NW,318,0.0,0.0,73,0.00,,,0.00,Wunderground v.1.15,2013-02-09 15:06:00,
2013-02-09 07:11:00,37.8,29.6,30.06,NW,318,0.0,0.0,72,0.00,,,0.00,Wunderground v.1.15,2013-02-09 15:11:00,
2013-02-09 07:16:00,37.9,29.3,30.06,NW,318,0.0,0.0,71,0.00,,,0.00,Wunderground v.1.15,2013-02-09 15:16:00,
2013-02-09 07:21:00,37.9,30.0,30.06,NW,318,0.0,1.0,73,0.00,,,0.00,Wunderground v.1.15,2013-02-09 15:21:00,
2013-02-09 07:26:00,38.3,29.4,30.06,NW,318,1.0,2.0,70,0.00,,,0.00,Wunderground v.1.15,2013-02-09 15:26:00,
2013-02-09 07:31:00,39.3,30.0,30.07,NW,319,0.0,0.0,69,0.00,,,0.00,Wunderground v.1.15,2013-02-09 15:31:00,
2013-02-09 07:36:00,39.6,30.3,30.07,NW,318,0.0,0.0,69,0.00,,,0.00,Wunderground v.1.15,2013-02-09 15:36:00,
2013-02-09 07:41:00,40.3,30.6,30.07,NW,319,0.0,0.0,68,0.00,,,0.00,Wunderground v.1.15,2013-02-09 15:41:00,
2013-02-09 07:46:00,40.2,31.5,30.07,NW,318,0.0,1.0,71,0.00,,,0.00,Wunderground v.1.15,2013-02-09 15:46:00,
2013-02-09 07:51:00,40.0,31.4,30.07,NW,318,0.0,0.0,71,0.00,,,0.00,Wunderground v.1.15,2013-02-09 15:51:00,
2013-02-09 07:56:00,40.5,31.5,30.07,NW,318,0.0,0.0,70,0.00,,,0.00,Wunderground v.1.15,2013-02-09 15:56:00,
2013-02-09 08:02:00,41.4,32.0,30.08,NW,318,0.0,0.0,69,0.00,,,0.00,Wunderground v.1.15,2013-02-09 16:02:00,
2013-02-09 08:07:00,42.4,32.9,30.08,NW,318,0.0,0.0,69,0.00,,,0.00,Wunderground v.1.15,2013-02-09 16:07:00,
2013-02-09 08:12:00,43.4,32.8,30.08,NW,318,0.0,0.0,66,0.00,,,0.00,Wunderground v.1.15,2013-02-09 16:12:00,
2013-02-09 08:17:00,45.2,34.5,30.08,NW,318,0.0,0.0,66,0.00,,,0.00,Wunderground v.1.15,2013-02-09 16:17:00,
2013-02-09 08:22:00,46.3,35.2,30.08,NW,318,0.0,0.0,65,0.00,,,0.00,Wunderground v.1.15,2013-02-09 16:22:00,
2013-02-09 08:27:00,47.2,34.8,30.08,NW,318,0.0,0.0,62,0.00,,,0.00,Wunderground v.1.15,2013-02-09 16:27:00,
2013-02-09 08:31:00,48.0,34.8,30.08,NW,318,0.0,0.0,60,0.00,,,0.00,Wunderground v.1.15,2013-02-09 16:31:00,
2013-02-09 08:37:00,48.7,32.3,30.08,NW,318,0.0,0.0,53,0.00,,,0.00,Wunderground v.1.15,2013-02-09 16:37:00,
2013-02-09 08:42:00,49.0,33.5,30.08,NW,318,0.0,0.0,55,0.00,,,0.00,Wunderground v.1.15,2013-02-09 16:42:00,
2013-02-09 08:47:00,49.6,33.2,30.08,NW,318,0.0,0.0,53,0.00,,,0.00,Wunderground v.1.15,2013-02-09 16:47:00,
2013-02-09 08:52:00,50.6,33.1,30.08,NW,318,0.0,0.0,51,0.00,,,0.00,Wunderground v.1.15,2013-02-09 16:52:00,
2013-02-09 08:57:00,50.7,33.2,30.08,NW,318,0.0,0.0,51,0.00,,,0.00,Wunderground v.1.15,2013-02-09 16:57:00,
2013-02-09 09:02:00,50.3,33.8,30.08,NW,318,0.0,0.0,53,0.00,,,0.00,Wunderground v.1.15,2013-02-09 17:02:00,
2013-02-09 09:07:00,50.8,34.7,30.08,NW,318,0.0,0.0,54,0.00,,,0.00,Wunderground v.1.15,2013-02-09 17:07:00,
2013-02-09 09:12:00,51.1,35.5,30.08,NW,318,0.0,0.0,55,0.00,,,0.00,Wunderground v.1.15,2013-02-09 17:12:00,
2013-02-09 09:17:00,51.4,35.8,30.08,NW,318,0.0,0.0,55,0.00,,,0.00,Wunderground v.1.15,2013-02-09 17:17:00,
2013-02-09 09:22:00,52.1,35.9,30.08,NW,318,0.0,0.0,54,0.00,,,0.00,Wunderground v.1.15,2013-02-09 17:22:00,
2013-02-09 09:27:00,52.1,35.0,30.08,NW,318,0.0,2.0,52,0.00,,,0.00,Wunderground v.1.15,2013-02-09 17:27:00,
2013-02-09 09:32:00,52.1,35.5,30.08,NW,318,0.0,0.0,53,0.00,,,0.00,Wunderground v.1.15,2013-02-09 17:32:00,
2013-02-09 09:37:00,52.3,33.7,30.08,NW,319,0.0,1.0,49,0.00,,,0.00,Wunderground v.1.15,2013-02-09 17:37:00,
2013-02-09 09:42:00,52.8,34.7,30.08,NW,318,0.0,2.0,50,0.00,,,0.00,Wunderground v.1.15,2013-02-09 17:42:00,
2013-02-09 09:47:00,52.8,35.2,30.08,East,86,1.0,2.0,51,0.00,,,0.00,Wunderground v.1.15,2013-02-09 17:47:00,
2013-02-09 09:52:00,53.0,34.3,30.08,NE,49,0.0,0.0,49,0.00,,,0.00,Wunderground v.1.15,2013-02-09 17:52:00,
2013-02-09 09:57:00,53.6,34.4,30.08,NE,42,2.0,3.0,48,0.00,,,0.00,Wunderground v.1.15,2013-02-09 17:57:00,
2013-02-09 10:02:00,53.8,33.5,30.08,ENE,75,1.0,3.0,46,0.00,,,0.00,Wunderground v.1.15,2013-02-09 18:02:00,
2013-02-09 10:07:00,53.7,33.4,30.09,NNE,32,0.0,5.0,46,0.00,,,0.00,Wunderground v.1.15,2013-02-09 18:07:00,
2013-02-09 10:12:00,52.9,32.1,30.09,NE,42,2.0,3.0,45,0.00,,,0.00,Wunderground v.1.15,2013-02-09 18:12:00,
2013-02-09 10:17:00,52.4,33.3,30.08,NE,46,1.0,4.0,48,0.00,,,0.00,Wunderground v.1.15,2013-02-09 18:17:00,
2013-02-09 10:22:00,52.5,31.2,30.09,NNE,21,1.0,4.0,44,0.00,,,0.00,Wunderground v.1.15,2013-02-09 18:22:00,
2013-02-09 10:27:00,52.8,32.6,30.09,NE,52,2.0,5.0,46,0.00,,,0.00,Wunderground v.1.15,2013-02-09 18:27:00,
2013-02-09 10:32:00,53.1,33.4,30.09,NE,46,3.0,4.0,47,0.00,,,0.00,Wunderground v.1.15,2013-02-09 18:32:00,
2013-02-09 10:37:00,53.3,33.0,30.09,NE,48,3.0,5.0,46,0.00,,,0.00,Wunderground v.1.15,2013-02-09 18:37:00,
2013-02-09 10:42:00,53.5,29.7,30.09,North,11,2.0,2.0,40,0.00,,,0.00,Wunderground v.1.15,2013-02-09 18:42:00,
2013-02-09 10:47:00,53.6,32.8,30.09,NE,54,0.0,4.0,45,0.00,,,0.00,Wunderground v.1.15,2013-02-09 18:47:00,
2013-02-09 10:52:00,53.6,33.8,30.09,NE,46,2.0,4.0,47,0.00,,,0.00,Wunderground v.1.15,2013-02-09 18:52:00,
2013-02-09 10:57:00,53.8,32.9,30.09,ENE,65,2.0,5.0,45,0.00,,,0.00,Wunderground v.1.15,2013-02-09 18:57:00,
2013-02-09 11:02:00,53.6,30.4,30.09,NNE,28,0.0,6.0,41,0.00,,,0.00,Wunderground v.1.15,2013-02-09 19:02:00,
2013-02-09 11:07:00,53.9,31.3,30.09,ESE,111,1.0,6.0,42,0.00,,,0.00,Wunderground v.1.15,2013-02-09 19:07:00,
2013-02-09 11:12:00,54.2,31.0,30.09,NE,34,0.0,3.0,41,0.00,,,0.00,Wunderground v.1.15,2013-02-09 19:12:00,
2013-02-09 11:17:00,54.6,31.3,30.09,East,96,1.0,5.0,41,0.00,,,0.00,Wunderground v.1.15,2013-02-09 19:17:00,
2013-02-09 11:22:00,54.7,29.6,30.09,East,93,4.0,5.0,38,0.00,,,0.00,Wunderground v.1.15,2013-02-09 19:22:00,
2013-02-09 11:27:00,54.4,29.3,30.09,NE,45,6.0,6.0,38,0.00,,,0.00,Wunderground v.1.15,2013-02-09 19:27:00,
2013-02-09 11:32:00,53.9,28.2,30.09,NNE,26,2.0,7.0,37,0.00,,,0.00,Wunderground v.1.15,2013-02-09 19:32:00,
2013-02-09 11:37:00,54.3,28.6,30.09,NE,44,4.0,7.0,37,0.00,,,0.00,Wunderground v.1.15,2013-02-09 19:37:00,
2013-02-09 11:42:00,54.3,27.2,30.09,NE,55,2.0,7.0,35,0.00,,,0.00,Wunderground v.1.15,2013-02-09 19:42:00,
2013-02-09 11:47:00,54.3,25.8,30.09,NNE,16,2.0,7.0,33,0.00,,,0.00,Wunderground v.1.15,2013-02-09 19:47:00,
2013-02-09 11:52:00,54.7,26.1,30.08,NW,319,1.0,6.0,33,0.00,,,0.00,Wunderground v.1.15,2013-02-09 19:52:00,
2013-02-09 11:58:00,54.6,25.3,30.08,NNE,17,1.0,6.0,32,0.00,,,0.00,Wunderground v.1.15,2013-02-09 19:58:00,
2013-02-09 12:03:00,54.6,23.7,30.08,ENE,71,4.0,6.0,30,0.00,,,0.00,Wunderground v.1.15,2013-02-09 20:03:00,
2013-02-09 12:08:00,54.6,26.0,30.08,NE,54,4.0,6.0,33,0.00,,,0.00,Wunderground v.1.15,2013-02-09 20:08:00,
2013-02-09 12:13:00,54.8,25.5,30.08,NNE,23,2.0,5.0,32,0.00,,,0.00,Wunderground v.1.15,2013-02-09 20:13:00,
2013-02-09 12:17:00,54.9,25.6,30.08,East,101,4.0,10.0,32,0.00,,,0.00,Wunderground v.1.15,2013-02-09 20:17:00,
2013-02-09 12:22:00,54.8,25.5,30.08,NE,48,3.0,5.0,32,0.00,,,0.00,Wunderground v.1.15,2013-02-09 20:22:00,
2013-02-09 12:28:00,55.4,26.7,30.08,ENE,67,0.0,6.0,33,0.00,,,0.00,Wunderground v.1.15,2013-02-09 20:28:00,
2013-02-09 12:33:00,55.7,27.0,30.07,NNE,17,0.0,7.0,33,0.00,,,0.00,Wunderground v.1.15,2013-02-09 20:33:00,
2013-02-09 12:38:00,56.0,28.0,30.07,ENE,59,2.0,7.0,34,0.00,,,0.00,Wunderground v.1.15,2013-02-09 20:38:00,
2013-02-09 12:43:00,56.1,28.8,30.07,NE,53,7.0,10.0,35,0.00,,,0.00,Wunderground v.1.15,2013-02-09 20:43:00,
2013-02-09 12:48:00,55.6,28.4,30.07,ESE,102,3.0,10.0,35,0.00,,,0.00,Wunderground v.1.15,2013-02-09 20:48:00,
2013-02-09 12:53:00,55.4,28.2,30.07,NNE,19,2.0,7.0,35,0.00,,,0.00,Wunderground v.1.15,2013-02-09 20:53:00,
2013-02-09 12:58:00,55.5,28.3,30.07,ENE,59,3.0,9.0,35,0.00,,,0.00,Wunderground v.1.15,2013-02-09 20:58:00,
2013-02-09 13:03:00,55.4,27.5,30.07,NE,39,1.0,10.0,34,0.00,,,0.00,Wunderground v.1.15,2013-02-09 21:03:00,
2013-02-09 13:08:00,55.3,26.7,30.07,NNE,17,4.0,10.0,33,0.00,,,0.00,Wunderground v.1.15,2013-02-09 21:08:00,
2013-02-09 13:13:00,55.5,26.8,30.07,NNE,24,0.0,7.0,33,0.00,,,0.00,Wunderground v.1.15,2013-02-09 21:13:00,
2013-02-09 13:18:00,55.9,27.2,30.07,NNE,25,5.0,7.0,33,0.00,,,0.00,Wunderground v.1.15,2013-02-09 21:18:00,
2013-02-09 13:23:00,56.2,25.9,30.08,NNW,346,5.0,6.0,31,0.00,,,0.00,Wunderground v.1.15,2013-02-09 21:23:00,
2013-02-09 13:28:00,55.2,25.8,30.07,North,350,0.0,6.0,32,0.00,,,0.00,Wunderground v.1.15,2013-02-09 21:28:00,
2013-02-09 13:33:00,55.8,25.6,30.07,NNW,329,6.0,10.0,31,0.00,,,0.00,Wunderground v.1.15,2013-02-09 21:33:00,
2013-02-09 13:38:00,55.7,26.3,30.07,NE,51,2.0,10.0,32,0.00,,,0.00,Wunderground v.1.15,2013-02-09 21:38:00,
2013-02-09 13:43:00,55.6,26.2,30.07,NNE,33,3.0,11.0,32,0.00,,,0.00,Wunderground v.1.15,2013-02-09 21:43:00,
2013-02-09 13:48:00,56.0,26.5,30.07,NNW,329,3.0,11.0,32,0.00,,,0.00,Wunderground v.1.15,2013-02-09 21:48:00,
2013-02-09 13:53:00,56.4,27.6,30.06,ENE,57,0.0,3.0,33,0.00,,,0.00,Wunderground v.1.15,2013-02-09 21:53:00,
2013-02-09 13:58:00,56.2,27.4,30.07,SE,125,1.0,9.0,33,0.00,,,0.00,Wunderground v.1.15,2013-02-09 21:58:00,
2013-02-09 14:03:00,56.3,26.8,30.06,ENE,76,0.0,6.0,32,0.00,,,0.00,Wunderground v.1.15,2013-02-09 22:03:00,
2013-02-09 14:08:00,56.8,26.5,30.06,NE,53,4.0,6.0,31,0.00,,,0.00,Wunderground v.1.15,2013-02-09 22:08:00,
2013-02-09 14:13:00,56.5,25.4,30.06,NE,49,0.0,8.0,30,0.00,,,0.00,Wunderground v.1.15,2013-02-09 22:13:00,
2013-02-09 14:18:00,56.8,26.5,30.06,ENE,67,1.0,8.0,31,0.00,,,0.00,Wunderground v.1.15,2013-02-09 22:18:00,
2013-02-09 14:23:00,56.9,25.7,30.06,East,88,1.0,3.0,30,0.00,,,0.00,Wunderground v.1.15,2013-02-09 22:23:00,
2013-02-09 14:28:00,56.9,25.7,30.06,East,82,2.0,10.0,30,0.00,,,0.00,Wunderground v.1.15,2013-02-09 22:28:00,
2013-02-09 14:33:00,57.2,26.8,30.06,NW,321,5.0,5.0,31,0.00,,,0.00,Wunderground v.1.15,2013-02-09 22:33:00,
2013-02-09 14:38:00,57.2,26.8,30.05,NW,319,0.0,5.0,31,0.00,,,0.00,Wunderground v.1.15,2013-02-09 22:38:00,
2013-02-09 14:43:00,58.1,26.8,30.05,ESE,107,0.0,4.0,30,0.00,,,0.00,Wunderground v.1.15,2013-02-09 22:43:00,
2013-02-09 14:48:00,57.9,26.6,30.05,ENE,61,0.0,5.0,30,0.00,,,0.00,Wunderground v.1.15,2013-02-09 22:48:00,
2013-02-09 14:53:00,57.4,26.2,30.06,NNE,29,6.0,6.0,30,0.00,,,0.00,Wunderground v.1.15,2013-02-09 22:53:00,
2013-02-09 14:58:00,56.9,26.5,30.06,NE,43,1.0,7.0,31,0.00,,,0.00,Wunderground v.1.15,2013-02-09 22:58:00,
2013-02-09 15:03:00,57.3,26.9,30.06,ENE,58,1.0,2.0,31,0.00,,,0.00,Wunderground v.1.15,2013-02-09 23:03:00,
2013-02-09 15:08:00,57.4,27.0,30.06,NE,51,1.0,3.0,31,0.00,,,0.00,Wunderground v.1.15,2013-02-09 23:08:00,
2013-02-09 15:13:00,57.7,27.2,30.06,NE,51,0.0,1.0,31,0.00,,,0.00,Wunderground v.1.15,2013-02-09 23:13:00,
2013-02-09 15:19:00,57.9,27.4,30.05,NE,42,1.0,4.0,31,0.00,,,0.00,Wunderground v.1.15,2013-02-09 23:19:00,
2013-02-09 15:24:00,58.0,25.9,30.05,East,80,0.0,2.0,29,0.00,,,0.00,Wunderground v.1.15,2013-02-09 23:24:00,
2013-02-09 15:29:00,57.9,25.8,30.05,ENE,67,1.0,2.0,29,0.00,,,0.00,Wunderground v.1.15,2013-02-09 23:29:00,
2013-02-09 15:34:00,58.0,25.9,30.06,NE,36,1.0,2.0,29,0.00,,,0.00,Wunderground v.1.15,2013-02-09 23:34:00,
2013-02-09 15:39:00,57.7,25.6,30.06,WNW,300,5.0,9.0,29,0.00,,,0.00,Wunderground v.1.15,2013-02-09 23:39:00,
2013-02-09 15:44:00,57.2,26.0,30.06,North,355,0.0,5.0,30,0.00,,,0.00,Wunderground v.1.15,2013-02-09 23:44:00,
2013-02-09 15:49:00,57.1,25.9,30.06,NNW,338,0.0,5.0,30,0.00,,,0.00,Wunderground v.1.15,2013-02-09 23:49:00,
2013-02-09 15:54:00,57.2,26.8,30.06,North,9,0.0,3.0,31,0.00,,,0.00,Wunderground v.1.15,2013-02-09 23:54:00,
2013-02-09 15:59:00,57.2,26.0,30.06,NW,321,0.0,3.0,30,0.00,,,0.00,Wunderground v.1.15,2013-02-09 23:59:00,
2013-02-09 16:05:00,57.0,26.6,30.06,NW,313,0.0,4.0,31,0.00,,,0.00,Wunderground v.1.15,2013-02-10 00:05:00,
2013-02-09 16:07:00,57.2,27.6,30.06,NE,46,3.0,4.0,32,0.00,,,0.00,Wunderground v.1.15,2013-02-10 00:07:00,
2013-02-09 16:18:00,57.5,27.1,30.05,East,101,0.0,0.0,31,0.00,,,0.00,Wunderground v.1.15,2013-02-10 00:18:00,
2013-02-09 16:23:00,57.7,26.4,30.05,NE,40,0.0,3.0,30,0.00,,,0.00,Wunderground v.1.15,2013-02-10 00:23:00,
2013-02-09 16:28:00,57.9,26.6,30.05,NE,40,0.0,1.0,30,0.00,,,0.00,Wunderground v.1.15,2013-02-10 00:28:00,
2013-02-09 16:33:00,57.8,27.3,30.05,NE,40,0.0,1.0,31,0.00,,,0.00,Wunderground v.1.15,2013-02-10 00:33:00,
2013-02-09 16:38:00,57.8,27.3,30.05,NE,40,0.0,0.0,31,0.00,,,0.00,Wunderground v.1.15,2013-02-10 00:38:00,
2013-02-09 16:43:00,58.3,28.5,30.05,NE,40,0.0,1.0,32,0.00,,,0.00,Wunderground v.1.15,2013-02-10 00:43:00,
2013-02-09 16:55:00,58.3,27.0,30.05,NE,40,0.0,1.0,30,0.00,,,0.00,Wunderground v.1.15,2013-02-10 00:55:00,
2013-02-09 17:01:00,57.6,28.7,30.06,NE,40,0.0,0.0,33,0.00,,,0.00,Wunderground v.1.15,2013-02-10 01:01:00,
2013-02-09 17:06:00,56.0,29.4,30.06,NE,40,0.0,0.0,36,0.00,,,0.00,Wunderground v.1.15,2013-02-10 01:06:00,
2013-02-09 17:24:00,52.3,32.1,30.06,NE,40,0.0,0.0,46,0.00,,,0.00,Wunderground v.1.15,2013-02-10 01:24:00,
2013-02-09 17:29:00,51.6,32.0,30.06,NE,40,0.0,0.0,47,0.00,,,0.00,Wunderground v.1.15,2013-02-10 01:29:00,
2013-02-09 17:34:00,50.7,32.2,30.06,NE,40,0.0,0.0,49,0.00,,,0.00,Wunderground v.1.15,2013-02-10 01:34:00,
2013-02-09 17:39:00,50.1,31.7,30.05,NE,40,0.0,0.0,49,0.00,,,0.00,Wunderground v.1.15,2013-02-10 01:39:00,
2013-02-09 17:44:00,50.1,30.6,30.05,NE,40,2.0,2.0,47,0.00,,,0.00,Wunderground v.1.15,2013-02-10 01:44:00,
2013-02-09 17:49:00,50.3,31.8,30.06,NE,40,0.0,2.0,49,0.00,,,0.00,Wunderground v.1.15,2013-02-10 01:49:00,
2013-02-09 17:54:00,49.6,32.2,30.06,NE,40,0.0,0.0,51,0.00,,,0.00,Wunderground v.1.15,2013-02-10 01:54:00,
2013-02-09 17:59:00,49.1,32.7,30.06,NE,40,0.0,0.0,53,0.00,,,0.00,Wunderground v.1.15,2013-02-10 01:59:00,
2013-02-09 18:04:00,48.7,31.8,30.06,NE,40,0.0,0.0,52,0.00,,,0.00,Wunderground v.1.15,2013-02-10 02:04:00,
2013-02-09 18:09:00,48.2,32.8,30.06,NE,40,0.0,0.0,55,0.00,,,0.00,Wunderground v.1.15,2013-02-10 02:09:00,
2013-02-09 18:14:00,47.6,32.2,30.07,NE,40,0.0,2.0,55,0.00,,,0.00,Wunderground v.1.15,2013-02-10 02:14:00,
2013-02-09 18:19:00,47.3,31.9,30.07,NE,40,0.0,2.0,55,0.00,,,0.00,Wunderground v.1.15,2013-02-10 02:19:00,
2013-02-09 18:24:00,47.1,32.6,30.07,NE,40,0.0,3.0,57,0.00,,,0.00,Wunderground v.1.15,2013-02-10 02:24:00,
2013-02-09 18:29:00,46.6,32.2,30.07,NW,311,0.0,4.0,57,0.00,,,0.00,Wunderground v.1.15,2013-02-10 02:29:00,
2013-02-09 18:34:00,46.2,31.4,30.07,WNW,303,2.0,4.0,56,0.00,,,0.00,Wunderground v.1.15,2013-02-10 02:34:00,
2013-02-09 18:39:00,46.2,31.8,30.08,WNW,290,0.0,4.0,57,0.00,,,0.00,Wunderground v.1.15,2013-02-10 02:39:00,
2013-02-09 18:45:00,46.0,32.0,30.08,NW,318,0.0,3.0,58,0.00,,,0.00,Wunderground v.1.15,2013-02-10 02:45:00,
2013-02-09 18:51:00,45.6,31.7,30.08,NW,318,0.0,3.0,58,0.00,,,0.00,Wunderground v.1.15,2013-02-10 02:51:00,
2013-02-09 18:56:00,45.5,32.4,30.08,NW,318,0.0,1.0,60,0.00,,,0.00,Wunderground v.1.15,2013-02-10 02:56:00,
2013-02-09 19:01:00,45.3,32.2,30.09,NW,318,0.0,0.0,60,0.00,,,0.00,Wunderground v.1.15,2013-02-10 03:01:00,
2013-02-09 19:06:00,45.2,32.5,30.08,NW,318,0.0,0.0,61,0.00,,,0.00,Wunderground v.1.15,2013-02-10 03:06:00,
2013-02-09 19:11:00,45.2,32.5,30.09,NW,318,0.0,0.0,61,0.00,,,0.00,Wunderground v.1.15,2013-02-10 03:11:00,
2013-02-09 19:16:00,45.1,32.8,30.09,NW,318,0.0,1.0,62,0.00,,,0.00,Wunderground v.1.15,2013-02-10 03:16:00,
2013-02-09 19:21:00,44.9,33.1,30.09,NW,318,0.0,0.0,63,0.00,,,0.00,Wunderground v.1.15,2013-02-10 03:21:00,
2013-02-09 19:26:00,44.5,33.1,30.09,NW,318,0.0,0.0,64,0.00,,,0.00,Wunderground v.1.15,2013-02-10 03:26:00,
2013-02-09 19:31:00,44.0,33.0,30.09,NW,318,0.0,0.0,65,0.00,,,0.00,Wunderground v.1.15,2013-02-10 03:31:00,
2013-02-09 19:36:00,43.8,33.2,30.09,NW,318,1.0,1.0,66,0.00,,,0.00,Wunderground v.1.15,2013-02-10 03:36:00,
2013-02-09 19:42:00,43.7,33.5,30.09,NW,318,0.0,1.0,67,0.00,,,0.00,Wunderground v.1.15,2013-02-10 03:42:00,
2013-02-09 19:47:00,43.6,33.4,30.10,NW,318,0.0,1.0,67,0.00,,,0.00,Wunderground v.1.15,2013-02-10 03:47:00,
2013-02-09 19:54:00,43.1,33.3,30.10,NW,318,0.0,0.0,68,0.00,,,0.00,Wunderground v.1.15,2013-02-10 03:54:00,
2013-02-09 19:59:00,42.8,33.3,30.10,NW,318,0.0,0.0,69,0.00,,,0.00,Wunderground v.1.15,2013-02-10 03:59:00,
2013-02-09 20:03:00,42.9,33.4,30.10,NW,318,0.0,1.0,69,0.00,,,0.00,Wunderground v.1.15,2013-02-10 04:03:00,
2013-02-09 20:15:00,42.9,32.7,30.10,NW,318,0.0,0.0,67,0.00,,,0.00,Wunderground v.1.15,2013-02-10 04:15:00,
2013-02-09 20:23:00,42.9,33.1,30.10,NW,318,0.0,0.0,68,0.00,,,0.00,Wunderground v.1.15,2013-02-10 04:23:00,
2013-02-09 20:28:00,42.5,32.7,30.10,NW,318,0.0,0.0,68,0.00,,,0.00,Wunderground v.1.15,2013-02-10 04:28:00,
2013-02-09 20:33:00,42.3,32.5,30.10,NW,318,0.0,0.0,68,0.00,,,0.00,Wunderground v.1.15,2013-02-10 04:33:00,
2013-02-09 20:38:00,42.2,32.4,30.10,NW,318,0.0,0.0,68,0.00,,,0.00,Wunderground v.1.15,2013-02-10 04:38:00,
2013-02-09 20:43:00,42.1,32.3,30.11,NW,318,0.0,0.0,68,0.00,,,0.00,Wunderground v.1.15,2013-02-10 04:43:00,
2013-02-09 20:48:00,42.0,32.6,30.11,NW,318,0.0,0.0,69,0.00,,,0.00,Wunderground v.1.15,2013-02-10 04:48:00,
2013-02-09 20:53:00,41.8,32.4,30.11,NW,318,0.0,0.0,69,0.00,,,0.00,Wunderground v.1.15,2013-02-10 04:53:00,
2013-02-09 21:01:00,41.6,32.5,30.11,NW,318,0.0,0.0,70,0.00,,,0.00,Wunderground v.1.15,2013-02-10 05:01:00,
2013-02-09 21:06:00,41.3,32.2,30.11,NW,318,0.0,0.0,70,0.00,,,0.00,Wunderground v.1.15,2013-02-10 05:06:00,
2013-02-09 21:11:00,41.4,32.3,30.11,NW,318,0.0,0.0,70,0.00,,,0.00,Wunderground v.1.15,2013-02-10 05:11:00,
2013-02-09 21:16:00,41.2,32.5,30.11,NW,318,0.0,0.0,71,0.00,,,0.00,Wunderground v.1.15,2013-02-10 05:16:00,
2013-02-09 21:21:00,40.9,31.9,30.12,NW,318,0.0,0.0,70,0.00,,,0.00,Wunderground v.1.15,2013-02-10 05:21:00,
2013-02-09 21:26:00,40.7,31.7,30.12,NW,318,0.0,0.0,70,0.00,,,0.00,Wunderground v.1.15,2013-02-10 05:26:00,
2013-02-09 21:31:00,40.5,31.8,30.11,NW,318,0.0,0.0,71,0.00,,,0.00,Wunderground v.1.15,2013-02-10 05:31:00,
2013-02-09 21:36:00,40.2,32.2,30.12,NW,318,0.0,0.0,73,0.00,,,0.00,Wunderground v.1.15,2013-02-10 05:36:00,
2013-02-09 21:41:00,40.1,31.8,30.11,NW,318,0.0,0.0,72,0.00,,,0.00,Wunderground v.1.15,2013-02-10 05:41:00,
2013-02-09 21:47:00,40.7,32.4,30.11,NW,318,0.0,0.0,72,0.00,,,0.00,Wunderground v.1.15,2013-02-10 05:47:00,
2013-02-09 21:52:00,40.7,32.0,30.11,NW,318,0.0,0.0,71,0.00,,,0.00,Wunderground v.1.15,2013-02-10 05:52:00,
2013-02-09 21:57:00,40.8,32.1,30.11,NW,318,0.0,0.0,71,0.00,,,0.00,Wunderground v.1.15,2013-02-10 05:57:00,
2013-02-09 22:02:00,40.5,32.2,30.11,NW,317,0.0,0.0,72,0.00,,,0.00,Wunderground v.1.15,2013-02-10 06:02:00,
2013-02-09 22:07:00,40.4,32.1,30.11,NW,318,0.0,0.0,72,0.00,,,0.00,Wunderground v.1.15,2013-02-10 06:07:00,
2013-02-09 22:12:00,41.0,31.6,30.11,NW,318,0.0,2.0,69,0.00,,,0.00,Wunderground v.1.15,2013-02-10 06:12:00,
2013-02-09 22:17:00,41.4,32.0,30.11,NW,318,0.0,2.0,69,0.00,,,0.00,Wunderground v.1.15,2013-02-10 06:17:00,
2013-02-09 22:22:00,41.0,32.3,30.12,NW,318,0.0,1.0,71,0.00,,,0.00,Wunderground v.1.15,2013-02-10 06:22:00,
2013-02-09 22:27:00,40.6,31.9,30.11,NW,318,0.0,1.0,71,0.00,,,0.00,Wunderground v.1.15,2013-02-10 06:27:00,
2013-02-09 22:32:00,40.4,32.1,30.12,NW,318,0.0,0.0,72,0.00,,,0.00,Wunderground v.1.15,2013-02-10 06:32:00,
2013-02-09 22:37:00,40.2,32.2,30.11,NW,318,0.0,0.0,73,0.00,,,0.00,Wunderground v.1.15,2013-02-10 06:37:00,
2013-02-09 22:42:00,39.9,32.3,30.11,NW,318,0.0,0.0,74,0.00,,,0.00,Wunderground v.1.15,2013-02-10 06:42:00,
2013-02-09 22:49:00,39.7,32.1,30.11,NW,318,0.0,0.0,74,0.00,,,0.00,Wunderground v.1.15,2013-02-10 06:49:00,
2013-02-09 22:54:00,39.1,32.2,30.11,NW,318,0.0,0.0,76,0.00,,,0.00,Wunderground v.1.15,2013-02-10 06:54:00,
2013-02-09 22:59:00,39.1,32.2,30.11,NW,318,0.0,0.0,76,0.00,,,0.00,Wunderground v.1.15,2013-02-10 06:59:00,
2013-02-09 23:04:00,39.1,32.5,30.11,NW,318,0.0,0.0,77,0.00,,,0.00,Wunderground v.1.15,2013-02-10 07:04:00,
2013-02-09 23:09:00,39.2,32.3,30.11,NW,318,0.0,0.0,76,0.00,,,0.00,Wunderground v.1.15,2013-02-10 07:09:00,
2013-02-09 23:14:00,39.3,32.0,30.11,NW,318,0.0,1.0,75,0.00,,,0.00,Wunderground v.1.15,2013-02-10 07:14:00,
2013-02-09 23:19:00,39.2,31.9,30.11,NW,318,0.0,1.0,75,0.00,,,0.00,Wunderground v.1.15,2013-02-10 07:19:00,
2013-02-09 23:24:00,39.1,31.8,30.11,NW,318,0.0,0.0,75,0.00,,,0.00,Wunderground v.1.15,2013-02-10 07:24:00,
2013-02-09 23:29:00,39.2,31.6,30.11,NW,318,0.0,0.0,74,0.00,,,0.00,Wunderground v.1.15,2013-02-10 07:29:00,
2013-02-09 23:34:00,39.3,31.7,30.11,NW,318,0.0,0.0,74,0.00,,,0.00,Wunderground v.1.15,2013-02-10 07:34:00,
2013-02-09 23:39:00,39.3,31.7,30.11,NW,318,0.0,0.0,74,0.00,,,0.00,Wunderground v.1.15,2013-02-10 07:39:00,
2013-02-09 23:44:00,39.3,31.4,30.11,NW,318,0.0,0.0,73,0.00,,,0.00,Wunderground v.1.15,2013-02-10 07:44:00,
2013-02-09 23:49:00,39.3,31.4,30.11,NW,318,0.0,0.0,73,0.00,,,0.00,Wunderground v.1.15,2013-02-10 07:49:00,
2013-02-09 23:54:00,39.5,31.2,30.11,NW,318,0.0,0.0,72,0.00,,,0.00,Wunderground v.1.15,2013-02-10 07:54:00,
2013-02-09 23:59:00,39.6,31.3,30.11,NW,318,0.0,0.0,72,0.00,,,0.00,Wunderground v.1.15,2013-02-10 07:59:00,